Time;durP1;ratioP1;P1;durP2;ratioP2;P2;SDS_P1;SDS_P2;PMS_P1;PMS_P2;Temp;Humidity;BMP_temperature;BMP_pressure;BME280_temperature;BME280_humidity;BME280_pressure;Samples;Min_cycle;Max_cycle;Signal;HPM_P1;HPM_P2
2022/01/12 02:51:28;;;;;;;39.83;18.65;;;;;;;9.98;67.08;102898.75;6138894;22;120935;-92
2022/01/12 03:31:46;;;;;;;31.13;15.73;;;;;;;9.70;65.46;102923.41;6136954;22;120654;-91
2022/01/12 11:08:16;;;;;;;14.40;5.10;;;;;;;10.00;65.71;103082.09;6145598;22;120883;-90
2022/01/12 11:10:42;;;;;;;22.80;4.97;;;;;;;10.52;65.67;103145.72;6074560;22;121700;-90
2022/01/12 11:13:07;;;;;;;19.33;5.43;;;;;;;10.40;66.25;103125.69;6098748;22;118598;-90
2022/01/12 11:15:48;;;;;;;17.83;4.95;;;;;;;10.61;66.13;103154.34;6094294;23;120855;-90
2022/01/12 11:18:16;;;;;;;19.35;5.07;;;;;;;10.45;65.75;103128.06;6069233;23;121578;-91
2022/01/12 11:20:44;;;;;;;18.83;5.32;;;;;;;10.42;65.56;103128.84;6070052;23;118476;-91
2022/01/12 11:27:20;;;;;;;15.93;4.70;;;;;;;10.84;65.65;103176.72;6147040;22;119191;-91
2022/01/12 11:29:49;;;;;;;22.95;5.47;;;;;;;10.76;66.25;103150.44;6074776;22;118488;-92
2022/01/12 11:32:24;;;;;;;27.40;5.88;;;;;;;10.82;66.30;103139.84;6078759;22;121056;-91
2022/01/12 11:35:33;;;;;;;19.58;4.93;;;;;;;11.13;65.93;103176.75;6074605;22;119097;-90
2022/01/12 11:38:01;;;;;;;18.83;4.95;;;;;;;11.04;65.60;103172.41;6099364;22;121110;-91
2022/01/12 11:40:34;;;;;;;25.15;6.25;;;;;;;11.27;65.66;103171.22;6097133;22;120190;-89
2022/01/12 11:43:00;;;;;;;24.05;6.30;;;;;;;11.00;65.73;103118.66;6097607;22;118484;-91
2022/01/12 11:45:25;;;;;;;29.70;6.35;;;;;;;11.19;65.40;103133.94;6096469;22;120125;-90
2022/01/12 11:47:51;;;;;;;25.48;6.35;;;;;;;11.17;65.83;103114.34;6094694;22;120072;-91
2022/01/12 11:50:17;;;;;;;26.05;5.53;;;;;;;11.36;66.39;103135.88;6117093;22;119346;-91
2022/01/12 11:52:46;;;;;;;31.13;6.40;;;;;;;11.39;66.57;103121.34;6122912;22;119800;-90
2022/01/12 11:55:16;;;;;;;23.23;5.63;;;;;;;11.67;65.97;103148.75;6067116;22;118978;-92
2022/01/12 11:57:52;;;;;;;30.42;5.60;;;;;;;11.77;66.66;103149.09;6090063;22;120426;-91
2022/01/12 12:00:20;;;;;;;27.15;6.45;;;;;;;11.86;66.86;103155.00;6063786;22;121965;-89
2022/01/12 12:02:51;;;;;;;27.02;6.13;;;;;;;11.87;66.20;103142.81;6089013;22;118815;-90
2022/01/12 12:05:23;;;;;;;30.40;6.35;;;;;;;11.80;67.83;103120.81;6085119;22;120825;-89
2022/01/12 12:08:02;;;;;;;36.13;6.13;;;;;;;12.14;67.49;103143.09;6084670;22;121907;-90
2022/01/12 12:10:30;;;;;;;32.92;5.88;;;;;;;12.20;66.52;103147.75;6058714;22;118652;-91
2022/01/12 12:12:57;;;;;;;32.72;7.10;;;;;;;12.26;66.42;103145.34;6083822;22;120083;-91
2022/01/12 12:15:25;;;;;;;31.30;5.50;;;;;;;12.33;67.26;103136.28;6111206;22;120493;-91
2022/01/12 12:17:52;;;;;;;30.88;5.78;;;;;;;12.41;67.24;103141.34;6081740;22;120938;-91
2022/01/12 12:20:20;;;;;;;30.13;6.40;;;;;;;12.43;67.77;103133.47;6080291;22;121613;-92
2022/01/12 12:22:47;;;;;;;31.38;5.88;;;;;;;12.24;67.54;103090.72;6080657;22;118599;-91
2022/01/12 12:25:14;;;;;;;31.60;6.82;;;;;;;12.60;68.95;103126.28;6104635;22;119315;-91
2022/01/12 12:27:42;;;;;;;37.50;6.80;;;;;;;12.56;69.56;103109.78;6054965;22;120218;-91
2022/01/12 12:30:17;;;;;;;33.08;5.97;;;;;;;12.66;67.79;103110.88;6080286;22;119235;-90
2022/01/12 12:32:45;;;;;;;30.75;6.22;;;;;;;12.71;68.00;103099.41;6054662;22;121151;-91
2022/01/12 12:35:24;;;;;;;30.88;6.07;;;;;;;12.56;67.06;103062.97;6077919;22;119552;-90
2022/01/12 12:37:55;;;;;;;27.30;5.15;;;;;;;12.78;66.65;103093.88;6084198;22;118613;-90
2022/01/12 12:40:29;;;;;;;36.80;6.47;;;;;;;12.54;68.18;103056.31;6080467;22;121378;-91
2022/01/12 12:43:04;;;;;;;;;;;;;;;12.85;68.10;103091.03;6080944;22;119040;-91
2022/01/12 12:45:36;;;;;;;;;;;;;;;12.87;68.31;103099.69;6055076;22;120454;-91
2022/01/12 12:48:05;;;;;;;30.87;5.53;;;;;;;12.90;66.67;103100.81;6103823;22;119927;-91
2022/01/12 12:50:32;;;;;;;29.63;5.50;;;;;;;12.83;66.66;103085.16;6102215;22;118581;-92
2022/01/12 12:52:59;;;;;;;31.13;5.68;;;;;;;12.89;67.77;103093.75;6078702;22;119140;-90
2022/01/12 12:55:24;;;;;;;34.25;5.90;;;;;;;12.87;65.99;103088.66;6077748;22;122170;-93
2022/01/12 12:57:56;;;;;;;37.25;6.38;;;;;;;12.93;68.53;103097.25;6079636;22;119234;-91
2022/01/12 13:00:24;;;;;;;32.05;5.57;;;;;;;12.95;68.33;103092.13;6058899;22;121298;-92
2022/01/12 13:02:54;;;;;;;26.42;5.57;;;;;;;12.95;67.49;103088.59;6103483;22;119073;-90
2022/01/12 13:05:25;;;;;;;29.98;5.65;;;;;;;13.05;68.89;103096.75;6129380;22;118472;-92
2022/01/12 13:07:51;;;;;;;27.02;5.28;;;;;;;13.06;67.91;103090.06;6053976;22;122684;-91
2022/01/12 13:10:26;;;;;;;43.00;7.25;;;;;;;13.09;67.94;103094.75;6077741;22;118535;-91
2022/01/12 13:13:00;;;;;;;34.50;5.72;;;;;;;13.10;69.50;103085.28;6052818;22;120433;-91
2022/01/12 13:15:33;;;;;;;28.42;5.65;;;;;;;13.14;66.82;103080.50;6100443;22;122044;-92
2022/01/12 13:18:08;;;;;;;41.33;6.23;;;;;;;13.08;65.69;103081.38;6052474;22;119120;-91
2022/01/12 13:23:22;;;;;;;30.10;6.75;;;;;;;13.01;66.81;103090.50;6081169;22;122065;-91
2022/01/12 13:25:49;;;;;;;31.63;5.82;;;;;;;13.03;64.99;103095.59;6075997;22;119373;-91
2022/01/12 13:28:18;;;;;;;28.85;5.88;;;;;;;12.89;64.56;103078.00;6052243;22;121368;-89
2022/01/12 13:30:59;;;;;;;29.80;5.38;;;;;;;12.94;64.71;103101.56;6076600;22;119462;-90
2022/01/12 13:33:34;;;;;;;33.83;5.70;;;;;;;12.92;65.19;103103.97;6051971;22;119423;-90
2022/01/12 13:36:18;;;;;;;32.67;5.47;;;;;;;12.94;64.65;103122.84;6052856;22;121620;-91
2022/01/12 13:38:48;;;;;;;34.30;6.70;;;;;;;12.93;65.75;103121.28;6077259;22;119270;-91
2022/01/12 13:41:16;;;;;;;26.60;5.53;;;;;;;12.95;64.80;103121.63;6077342;22;120833;-90
2022/01/12 13:43:47;;;;;;;36.35;7.13;;;;;;;12.97;67.83;103122.00;6050234;22;121850;-91
2022/01/12 13:46:17;;;;;;;32.10;5.85;;;;;;;12.91;66.09;103119.69;6081685;22;119309;-90
2022/01/12 13:49:05;;;;;;;24.25;5.72;;;;;;;12.82;67.47;103100.13;6052776;22;119128;-90
2022/01/12 13:51:37;;;;;;;36.35;6.28;;;;;;;12.81;66.12;103104.06;6051877;22;119209;-90
2022/01/12 13:54:05;;;;;;;27.70;6.70;;;;;;;12.97;69.17;103128.31;6102005;22;119233;-90
2022/01/12 13:56:49;;;;;;;34.45;7.47;;;;;;;13.02;69.75;103138.91;6100331;22;120117;-91
2022/01/12 13:59:15;;;;;;;32.38;5.97;;;;;;;13.01;68.59;103122.75;6101047;22;119432;-90
2022/01/12 14:01:43;;;;;;;32.78;6.43;;;;;;;12.67;68.57;103059.34;6076838;22;120988;-91
2022/01/12 14:04:13;;;;;;;39.50;6.28;;;;;;;13.00;69.71;103099.16;6051053;22;121746;-91
2022/01/12 14:06:42;;;;;;;37.95;6.93;;;;;;;12.66;66.27;103039.28;6056875;22;118997;-91
2022/01/12 14:09:34;;;;;;;37.67;6.60;;;;;;;13.03;66.60;103112.13;6074593;22;120361;-90
2022/01/12 14:12:18;;;;;;;34.95;6.57;;;;;;;12.97;64.62;103105.47;6076002;22;119563;-91
2022/01/12 14:14:51;;;;;;;35.47;6.70;;;;;;;12.91;66.83;103103.19;6075230;22;122311;-91
2022/01/12 14:17:31;;;;;;;35.57;6.40;;;;;;;12.94;67.05;103109.84;6075267;22;121626;-91
2022/01/12 14:20:00;;;;;;;33.03;6.45;;;;;;;12.95;66.66;103108.66;6052527;22;119247;-92
2022/01/12 14:22:28;;;;;;;28.92;6.18;;;;;;;12.93;66.63;103111.03;6077454;22;121030;-91
2022/01/12 14:24:59;;;;;;;31.38;6.28;;;;;;;12.91;66.85;103108.69;6052495;22;120627;-91
2022/01/12 14:27:46;;;;;;;32.83;6.65;;;;;;;12.91;67.96;103100.41;6078674;22;118489;-90
2022/01/12 14:30:15;;;;;;;32.22;6.60;;;;;;;12.74;66.92;103062.78;6062026;22;121129;-90
2022/01/12 14:32:42;;;;;;;38.58;7.85;;;;;;;12.81;65.66;103076.53;6104334;22;119305;-91
2022/01/12 14:35:13;;;;;;;35.83;7.32;;;;;;;12.85;65.40;103074.50;6077828;22;121043;-91
2022/01/12 14:37:39;;;;;;;33.05;6.65;;;;;;;12.70;65.42;103053.78;6129065;22;120334;-91
2022/01/12 14:40:07;;;;;;;36.50;7.55;;;;;;;12.81;65.65;103067.47;6103220;22;134142;-91
2022/01/12 14:42:41;;;;;;;37.17;7.63;;;;;;;12.86;65.31;103072.53;6078087;22;147539;-92
2022/01/12 14:45:10;;;;;;;32.08;6.85;;;;;;;12.84;65.19;103064.69;6101737;22;149505;-92
2022/01/12 14:47:37;;;;;;;34.25;7.50;;;;;;;12.63;65.51;103033.81;6075675;22;131250;-90
2022/01/12 14:50:05;;;;;;;34.35;6.60;;;;;;;12.77;64.83;103056.47;6077447;22;148473;-91
2022/01/12 14:52:33;;;;;;;30.55;6.78;;;;;;;12.73;65.58;103055.72;6103438;22;148244;-91
2022/01/12 14:54:59;;;;;;;30.45;6.22;;;;;;;12.66;65.77;103042.03;6102014;22;119321;-91
2022/01/12 14:57:24;;;;;;;29.90;5.22;;;;;;;12.82;65.77;103078.09;6126799;22;119938;-90
2022/01/12 14:59:50;;;;;;;35.13;6.03;;;;;;;12.78;64.31;103071.84;6076193;22;119275;-91
2022/01/12 15:02:15;;;;;;;32.25;6.55;;;;;;;12.69;65.14;103067.97;6051490;22;121083;-91
2022/01/12 15:04:41;;;;;;;32.85;6.50;;;;;;;12.71;64.89;103091.16;6076238;22;119326;-91
2022/01/12 15:07:07;;;;;;;32.20;7.30;;;;;;;12.76;64.91;103089.94;6052977;22;119247;-93
2022/01/12 15:09:34;;;;;;;30.63;7.13;;;;;;;12.52;67.44;103056.69;6052707;22;120754;-91
2022/01/12 15:12:00;;;;;;;35.13;6.07;;;;;;;12.60;64.84;103082.22;6075285;22;121937;-92
2022/01/12 15:14:42;;;;;;;29.92;6.63;;;;;;;12.75;66.32;103097.41;6080232;22;119034;-92
2022/01/12 15:17:09;;;;;;;35.08;6.53;;;;;;;12.62;64.90;103071.56;6074954;22;121691;-92
2022/01/12 15:19:35;;;;;;;31.08;6.05;;;;;;;12.67;64.77;103095.91;6076322;22;119178;-88
2022/01/12 15:22:00;;;;;;;41.22;7.05;;;;;;;12.63;64.30;103086.91;6052170;22;121331;-91
2022/01/12 15:24:26;;;;;;;33.72;6.63;;;;;;;12.47;64.33;103054.38;6050655;22;121585;-91
2022/01/12 15:26:52;;;;;;;34.50;7.20;;;;;;;12.62;66.75;103068.81;6076116;22;119101;-91
2022/01/12 15:29:18;;;;;;;38.35;7.82;;;;;;;12.57;65.86;103066.50;6076301;22;119422;-92
2022/01/12 15:31:43;;;;;;;35.42;7.65;;;;;;;12.53;64.96;103062.97;6050589;22;122978;-90
2022/01/12 15:34:09;;;;;;;33.72;7.70;;;;;;;12.63;66.14;103081.41;6072703;22;119136;-91
2022/01/12 15:36:34;;;;;;;35.95;7.60;;;;;;;12.28;65.25;103022.66;6055564;22;120877;-90
2022/01/12 15:39:00;;;;;;;37.15;6.85;;;;;;;12.65;65.85;103079.00;6076143;22;119081;-91
2022/01/12 15:41:26;;;;;;;29.58;6.38;;;;;;;12.66;65.48;103080.59;6051573;22;120919;-92
2022/01/12 15:43:52;;;;;;;38.35;7.22;;;;;;;12.44;64.20;103043.41;6100106;22;121043;-91
2022/01/12 15:46:17;;;;;;;34.75;6.75;;;;;;;12.40;67.32;103035.19;6051806;22;119346;-91
2022/01/12 15:48:43;;;;;;;38.47;7.80;;;;;;;12.59;66.43;103064.91;6074803;22;121113;-91
2022/01/12 15:51:09;;;;;;;36.40;6.88;;;;;;;12.50;65.66;103061.81;6049849;22;121729;-92
2022/01/12 15:53:35;;;;;;;38.00;6.93;;;;;;;12.29;65.32;103017.94;6051481;22;119338;-91
2022/01/12 15:56:00;;;;;;;29.75;6.20;;;;;;;12.64;66.72;103071.94;6100775;22;119755;-90
2022/01/12 15:58:26;;;;;;;35.30;6.78;;;;;;;12.45;64.91;103048.50;6056351;22;121642;-91
2022/01/12 16:00:51;;;;;;;32.40;5.97;;;;;;;12.70;65.82;103072.28;6075988;22;120971;-90
2022/01/12 16:03:17;;;;;;;28.42;6.22;;;;;;;12.71;64.92;103080.13;6124915;22;120403;-90
2022/01/12 16:05:43;;;;;;;37.88;6.78;;;;;;;12.57;64.45;103070.03;6048448;22;118997;-92
2022/01/12 16:08:11;;;;;;;30.70;6.80;;;;;;;12.64;64.98;103077.44;6099456;22;119365;-90
2022/01/12 16:10:43;;;;;;;37.17;7.38;;;;;;;12.43;65.54;103047.34;6097064;22;119416;-92
2022/01/12 16:13:09;;;;;;;37.00;7.35;;;;;;;12.50;65.47;103059.06;6071765;22;119168;-91
2022/01/12 16:15:37;;;;;;;38.88;7.13;;;;;;;12.60;64.81;103071.19;6072031;22;121132;-91
2022/01/12 16:18:06;;;;;;;35.42;7.00;;;;;;;12.60;66.14;103071.19;6052320;22;122791;-91
2022/01/12 16:20:33;;;;;;;37.63;6.90;;;;;;;12.48;68.32;103052.41;6048296;22;121029;-91
2022/01/12 16:23:00;;;;;;;36.25;7.55;;;;;;;12.60;66.53;103063.72;6098486;22;120429;-91
2022/01/12 16:25:27;;;;;;;34.83;6.60;;;;;;;12.77;65.31;103095.03;6071619;22;119258;-92
2022/01/12 16:27:53;;;;;;;43.40;7.68;;;;;;;12.81;65.07;103092.25;6049642;22;121391;-91
2022/01/12 16:30:23;;;;;;;33.60;6.65;;;;;;;12.67;65.77;103078.59;6045918;22;122223;-90
2022/01/12 16:32:49;;;;;;;38.70;6.70;;;;;;;12.55;65.37;103066.13;6091827;22;119298;-91
2022/01/12 16:35:15;;;;;;;40.38;7.30;;;;;;;12.76;68.07;103085.19;6043547;22;121294;-90
2022/01/12 16:37:41;;;;;;;39.40;7.10;;;;;;;12.60;67.96;103060.19;6070289;22;122882;-91
2022/01/12 16:40:08;;;;;;;36.78;7.72;;;;;;;12.71;65.35;103082.88;6051922;22;119949;-91
2022/01/12 16:42:35;;;;;;;31.25;6.55;;;;;;;12.78;67.39;103088.34;6071306;22;121337;-90
2022/01/12 16:45:01;;;;;;;41.10;7.43;;;;;;;12.49;66.01;103034.69;6044839;22;119351;-90
2022/01/12 16:47:27;;;;;;;39.15;7.40;;;;;;;12.76;65.11;103085.19;6095026;22;121750;-90
2022/01/12 16:49:53;;;;;;;43.85;8.27;;;;;;;12.31;64.98;103021.09;6093523;22;120271;-89
2022/01/12 16:52:19;;;;;;;35.45;7.78;;;;;;;12.57;65.74;103055.50;6069734;22;119263;-89
2022/01/12 16:54:45;;;;;;;35.72;6.85;;;;;;;12.75;66.84;103082.84;6068751;22;119744;-89
2022/01/12 16:57:11;;;;;;;36.35;7.55;;;;;;;12.60;65.10;103065.69;6044778;22;121667;-90
2022/01/12 16:59:36;;;;;;;40.50;7.95;;;;;;;12.75;64.94;103093.88;6069971;22;119319;-90
2022/01/12 17:02:03;;;;;;;33.72;7.30;;;;;;;12.64;63.87;103093.97;6098630;22;119652;-89
2022/01/12 17:04:28;;;;;;;38.78;7.53;;;;;;;12.57;64.01;103083.03;6070434;22;119470;-91
2022/01/12 17:06:56;;;;;;;46.45;9.55;;;;;;;12.60;63.45;103101.50;6071072;22;121123;-89
2022/01/12 17:09:21;;;;;;;39.35;9.45;;;;;;;12.53;63.99;103096.78;6045475;22;122390;-89
2022/01/12 17:11:48;;;;;;;33.83;7.30;;;;;;;12.51;64.77;103099.19;6045825;22;119740;-89
2022/01/12 17:14:14;;;;;;;38.08;7.35;;;;;;;12.48;67.47;103090.94;6070698;22;122108;-89
2022/01/12 17:17:07;;;;;;;37.97;7.50;;;;;;;12.60;65.79;103104.25;6121014;22;120779;-89
2022/01/12 17:19:38;;;;;;;39.03;7.47;;;;;;;12.55;65.90;103099.16;6070794;22;119124;-90
2022/01/12 17:22:04;;;;;;;35.83;7.95;;;;;;;12.60;67.02;103104.25;6074371;22;119849;-90
2022/01/12 17:25:09;;;;;;;39.95;7.97;;;;;;;12.63;66.96;103116.41;6052640;22;121982;-90
2022/01/12 17:27:40;;;;;;;37.67;7.45;;;;;;;12.63;65.29;103108.16;6058777;22;121747;-89
2022/01/12 17:30:09;;;;;;;33.92;6.90;;;;;;;12.62;65.39;103103.84;6049185;22;123588;-89
2022/01/12 17:32:38;;;;;;;38.22;7.53;;;;;;;12.63;67.61;103097.13;6070774;22;119358;-90
2022/01/12 17:35:04;;;;;;;40.63;7.70;;;;;;;12.40;67.44;103054.44;6073380;22;120583;-90
2022/01/12 17:37:30;;;;;;;42.33;7.22;;;;;;;12.44;66.45;103062.66;6073248;22;123361;-89
2022/01/12 17:39:58;;;;;;;39.05;6.95;;;;;;;12.69;65.77;103107.31;6052322;22;118565;-91
2022/01/12 17:42:27;;;;;;;37.40;7.03;;;;;;;12.54;67.35;103061.81;6055042;22;120814;-91
2022/01/12 17:44:56;;;;;;;35.50;6.78;;;;;;;12.31;66.66;103025.81;6101651;22;121854;-91
2022/01/12 17:47:28;;;;;;;29.63;6.20;;;;;;;12.34;68.40;103014.78;6107686;22;118603;-91
2022/01/12 17:50:13;;;;;;;34.58;6.75;;;;;;;12.62;66.19;103054.28;6077005;22;120345;-92
2022/01/12 17:52:49;;;;;;;38.22;6.97;;;;;;;12.35;64.93;103010.06;6051978;22;119707;-92
2022/01/12 17:55:25;;;;;;;39.15;7.13;;;;;;;12.35;64.13;103010.84;6075304;22;121060;-90
2022/01/12 17:57:58;;;;;;;37.30;7.10;;;;;;;12.63;65.21;103059.38;6101355;22;121681;-92
2022/01/12 18:00:29;;;;;;;30.77;7.30;;;;;;;12.63;64.53;103064.09;6052238;22;119193;-91
2022/01/12 18:02:59;;;;;;;46.85;8.68;;;;;;;12.35;64.30;103021.84;6053108;22;121184;-91
2022/01/12 18:05:26;;;;;;;41.65;7.75;;;;;;;12.58;64.22;103065.31;6051891;22;122159;-91
2022/01/12 18:07:54;;;;;;;41.55;6.80;;;;;;;12.44;63.77;103043.41;6052025;22;119862;-90
2022/01/12 18:10:23;;;;;;;38.00;7.10;;;;;;;12.65;64.06;103069.97;6055451;22;121035;-92
2022/01/12 18:12:52;;;;;;;37.28;7.00;;;;;;;12.60;64.13;103063.72;6076844;22;119246;-90
2022/01/12 18:15:18;;;;;;;35.72;7.88;;;;;;;12.68;63.86;103077.41;6127662;22;119047;-90
2022/01/12 18:17:52;;;;;;;34.28;7.53;;;;;;;12.67;64.33;103078.59;6075777;22;121277;-91
2022/01/12 18:20:20;;;;;;;30.50;7.80;;;;;;;12.53;64.04;103061.00;6051255;22;119416;-91
2022/01/12 18:22:47;;;;;;;41.78;8.35;;;;;;;12.54;64.10;103062.59;6077071;22;120368;-91
2022/01/12 18:25:12;;;;;;;40.55;8.02;;;;;;;12.62;64.16;103073.53;6075968;22;120453;-92
2022/01/12 18:27:40;;;;;;;43.30;9.07;;;;;;;12.62;64.29;103085.34;6100831;22;119233;-91
2022/01/12 18:30:11;;;;;;;39.00;8.63;;;;;;;12.65;64.38;103089.25;6056930;22;120527;-91
2022/01/12 18:32:37;;;;;;;41.00;8.15;;;;;;;12.64;64.98;103093.97;6052361;22;119131;-91
2022/01/12 18:35:06;;;;;;;40.25;8.32;;;;;;;12.41;64.29;103057.97;6075439;22;122710;-90
2022/01/12 18:37:34;;;;;;;36.30;7.50;;;;;;;12.60;64.41;103077.50;6075520;22;120306;-92
2022/01/12 18:40:13;;;;;;;40.90;7.82;;;;;;;12.57;65.36;103066.50;6051865;22;119184;-91
2022/01/12 18:42:43;;;;;;;33.08;7.25;;;;;;;12.42;65.72;103032.78;6076115;22;119716;-91
2022/01/12 18:45:12;;;;;;;38.15;7.82;;;;;;;12.58;64.74;103057.84;6050648;22;121813;-91
2022/01/12 18:47:39;;;;;;;37.97;7.45;;;;;;;12.70;65.76;103075.03;6052383;22;119017;-91
2022/01/12 18:50:08;;;;;;;38.38;6.82;;;;;;;12.52;65.52;103033.88;6076360;22;120166;-91
2022/01/12 18:52:40;;;;;;;38.42;6.80;;;;;;;12.77;65.37;103074.97;6080883;22;120373;-92
2022/01/12 18:55:09;;;;;;;38.72;8.13;;;;;;;12.73;65.12;103064.00;6073809;22;122130;-91
2022/01/12 18:57:35;;;;;;;42.10;7.35;;;;;;;12.79;65.00;103072.63;6072721;22;122117;-90
2022/01/12 19:00:08;;;;;;;40.40;8.13;;;;;;;12.51;64.92;103030.34;6049415;22;120108;-92
2022/01/12 19:02:36;;;;;;;37.35;7.55;;;;;;;12.37;66.57;103008.47;6073625;22;119758;-91
2022/01/12 19:05:02;;;;;;;45.50;8.40;;;;;;;12.37;65.26;103010.44;6047865;22;121970;-90
2022/01/12 19:07:28;;;;;;;34.00;6.90;;;;;;;12.72;64.90;103067.94;6049285;22;119294;-91
2022/01/12 19:09:54;;;;;;;38.45;7.93;;;;;;;12.34;64.77;103003.78;6073646;22;121754;-91
2022/01/12 19:12:25;;;;;;;33.92;7.47;;;;;;;12.81;64.76;103070.22;6047694;22;121709;-91
2022/01/12 19:14:57;;;;;;;49.20;7.80;;;;;;;12.67;64.27;103056.56;6054346;22;119221;-91
2022/01/12 19:17:23;;;;;;;40.70;7.95;;;;;;;12.65;64.20;103045.19;6072545;22;120220;-90
2022/01/12 19:19:49;;;;;;;39.35;7.75;;;;;;;12.64;64.40;103047.16;6072487;22;119766;-91
2022/01/12 19:22:18;;;;;;;46.28;7.93;;;;;;;12.39;64.31;103019.06;6098654;22;119263;-90
2022/01/12 19:24:46;;;;;;;34.60;6.25;;;;;;;12.87;65.39;103090.63;6047924;22;121661;-91
2022/01/12 19:27:13;;;;;;;35.80;6.80;;;;;;;12.89;65.16;103102.03;6072968;22;119232;-90
2022/01/12 19:29:39;;;;;;;37.33;7.10;;;;;;;12.90;65.21;103106.34;6073179;22;121123;-92
2022/01/12 19:32:06;;;;;;;37.00;7.82;;;;;;;12.50;64.50;103037.03;6096502;22;123364;-91
2022/01/12 19:34:32;;;;;;;44.15;7.93;;;;;;;12.50;64.71;103039.78;6097739;22;119504;-91
2022/01/12 19:37:00;;;;;;;36.30;7.22;;;;;;;12.58;65.48;103052.34;6103023;22;121962;-92
2022/01/12 19:39:28;;;;;;;36.28;7.60;;;;;;;12.79;66.05;103084.41;6073525;22;119244;-92
2022/01/12 19:41:54;;;;;;;30.33;6.95;;;;;;;13.01;65.88;103090.50;6051660;22;120423;-89
2022/01/12 19:44:20;;;;;;;38.83;7.43;;;;;;;12.64;65.67;103033.41;6049904;22;121600;-91
2022/01/12 19:46:46;;;;;;;34.30;7.68;;;;;;;12.63;65.23;103020.81;6100359;22;119670;-91
2022/01/12 19:49:16;;;;;;;35.40;8.30;;;;;;;12.72;65.00;103029.38;6099854;22;119391;-91
2022/01/12 19:51:45;;;;;;;38.03;7.63;;;;;;;13.13;64.16;103101.00;6073647;22;119996;-91
2022/01/12 19:54:17;;;;;;;30.05;6.63;;;;;;;13.17;64.80;103104.53;6049950;22;119251;-91
2022/01/12 19:56:53;;;;;;;31.13;7.57;;;;;;;13.18;64.77;103108.06;6073977;22;120625;-91
2022/01/12 19:59:25;;;;;;;40.95;7.38;;;;;;;13.12;65.05;103090.38;6104271;22;123025;-91
2022/01/12 20:01:55;;;;;;;36.05;7.07;;;;;;;13.04;64.14;103073.16;6049824;22;120918;-92
2022/01/12 20:04:25;;;;;;;33.45;8.00;;;;;;;12.80;63.43;103036.41;6050243;22;121806;-91
2022/01/12 20:06:54;;;;;;;40.38;7.28;;;;;;;12.66;64.82;103031.00;6098789;22;119170;-90
2022/01/12 20:09:30;;;;;;;29.42;6.85;;;;;;;12.98;65.60;103065.72;6051478;22;122010;-90
2022/01/12 20:12:00;;;;;;;39.30;7.47;;;;;;;13.09;65.08;103080.19;6098782;22;120862;-90
2022/01/12 20:14:30;;;;;;;29.60;6.38;;;;;;;12.94;64.85;103056.72;6051504;22;119361;-91
2022/01/12 20:16:59;;;;;;;32.70;7.40;;;;;;;12.88;65.61;103043.38;6074389;22;119555;-90
2022/01/12 20:23:00;;;;;;;32.42;7.38;;;;;;;13.28;64.55;103098.13;6079845;22;120155;-91
2022/01/12 20:25:26;;;;;;;37.35;6.93;;;;;;;13.30;65.71;103106.78;6028880;22;122760;-90
2022/01/12 20:27:51;;;;;;;28.85;6.50;;;;;;;13.28;65.46;103098.91;6099133;22;120742;-91
2022/01/12 20:30:18;;;;;;;34.72;7.53;;;;;;;13.31;63.89;103092.56;6099136;22;120203;-91
2022/01/12 20:32:45;;;;;;;32.55;6.78;;;;;;;13.29;65.01;103092.22;6074603;22;122129;-91
2022/01/12 20:35:15;;;;;;;34.72;6.60;;;;;;;12.88;64.79;103040.63;6074209;22;119441;-90
2022/01/12 20:37:41;;;;;;;32.47;7.22;;;;;;;13.10;65.41;103054.19;6050556;22;120325;-90
2022/01/12 20:40:10;;;;;;;32.17;7.00;;;;;;;13.08;64.36;103053.81;6048606;22;121977;-92
2022/01/12 20:42:37;;;;;;;40.25;9.32;;;;;;;13.32;64.70;103085.88;6104545;22;119907;-91
2022/01/12 20:45:06;;;;;;;31.35;7.88;;;;;;;13.16;64.13;103063.56;6072518;22;120616;-91
2022/01/12 20:47:31;;;;;;;32.65;6.85;;;;;;;13.28;64.89;103079.63;6099555;22;119488;-90
2022/01/12 20:49:57;;;;;;;31.67;7.22;;;;;;;13.30;64.08;103101.25;6097256;22;121890;-91
2022/01/12 20:52:23;;;;;;;33.03;6.70;;;;;;;13.26;64.21;103090.28;6097758;22;122904;-92
2022/01/12 20:54:51;;;;;;;31.17;7.38;;;;;;;13.28;64.19;103098.91;6098345;22;119445;-91
2022/01/12 20:57:20;;;;;;;33.38;8.15;;;;;;;13.25;63.64;103104.44;6074420;22;120902;-92
2022/01/12 20:59:48;;;;;;;29.80;6.55;;;;;;;13.03;65.36;103059.78;6074495;22;120548;-91
2022/01/12 21:02:16;;;;;;;33.92;7.70;;;;;;;13.31;64.98;103094.56;6073459;22;119391;-92
2022/01/12 21:04:44;;;;;;;37.97;7.88;;;;;;;13.31;63.86;103105.56;6077706;22;123090;-91
2022/01/12 21:07:12;;;;;;;31.27;6.93;;;;;;;13.26;64.06;103093.03;6048491;22;119169;-91
2022/01/12 21:09:38;;;;;;;45.10;7.85;;;;;;;12.78;63.39;103033.28;6073638;22;121095;-91
2022/01/12 21:12:07;;;;;;;26.15;6.45;;;;;;;13.26;63.93;103112.31;6072634;22;121784;-91
2022/01/12 21:14:36;;;;;;;30.35;6.95;;;;;;;12.72;64.72;103025.84;6049559;22;119484;-91
2022/01/12 21:17:12;;;;;;;29.35;7.25;;;;;;;12.89;65.06;103061.47;6074538;22;120931;-90
2022/01/12 21:19:40;;;;;;;35.45;6.60;;;;;;;13.02;64.26;103063.72;6073083;22;122073;-91
2022/01/12 21:22:16;;;;;;;36.30;8.30;;;;;;;13.27;63.47;103118.63;6072696;22;119759;-91
2022/01/12 21:24:44;;;;;;;42.80;8.63;;;;;;;12.83;64.26;103056.84;6049299;22;120590;-91
2022/01/12 21:27:09;;;;;;;37.33;8.43;;;;;;;12.73;63.57;103033.69;6100734;22;119355;-91
2022/01/12 21:29:40;;;;;;;35.00;7.40;;;;;;;13.18;64.09;103116.34;6073810;22;122187;-90
2022/01/12 21:32:09;;;;;;;31.00;7.88;;;;;;;12.79;65.07;103045.06;6047255;22;122031;-90
2022/01/12 21:34:50;;;;;;;29.17;6.95;;;;;;;12.91;65.43;103061.84;6049565;22;119310;-90
2022/01/12 21:37:23;;;;;;;38.28;7.45;;;;;;;12.78;64.85;103038.78;6097237;22;119410;-90
2022/01/12 21:39:55;;;;;;;36.97;9.40;;;;;;;13.25;64.85;103109.94;6048491;22;121941;-92
2022/01/12 21:42:21;;;;;;;32.78;7.07;;;;;;;13.28;64.46;103103.66;6073166;22;119227;-92
2022/01/12 21:44:46;;;;;;;32.22;7.13;;;;;;;13.30;65.17;103102.03;6072664;22;121382;-90
2022/01/12 21:47:12;;;;;;;35.40;8.05;;;;;;;13.24;64.62;103089.88;6071938;22;121995;-91
2022/01/12 21:49:37;;;;;;;31.25;6.95;;;;;;;13.29;65.04;103086.69;6103111;22;119288;-91
2022/01/12 21:52:04;;;;;;;35.55;8.52;;;;;;;13.40;64.49;103095.63;6047897;22;123067;-92
2022/01/12 21:54:32;;;;;;;31.35;7.75;;;;;;;13.28;65.48;103078.84;6072043;22;119474;-90
2022/01/12 21:57:00;;;;;;;36.42;8.05;;;;;;;13.29;65.20;103094.97;6073625;22;119459;-91
2022/01/12 21:59:28;;;;;;;41.88;7.93;;;;;;;13.07;65.20;103052.25;6047271;22;122072;-91
2022/01/12 22:01:55;;;;;;;43.65;8.80;;;;;;;13.33;64.35;103101.22;6073015;22;119934;-90
2022/01/12 22:04:21;;;;;;;37.13;7.93;;;;;;;13.06;65.18;103054.22;6048481;22;120589;-90
2022/01/12 22:06:47;;;;;;;33.03;8.50;;;;;;;13.20;65.72;103086.38;6046993;22;122393;-90
2022/01/12 22:09:15;;;;;;;29.98;7.03;;;;;;;13.31;66.76;103081.56;6048355;22;119289;-90
2022/01/12 22:11:44;;;;;;;33.58;7.50;;;;;;;13.38;65.62;103098.00;6079040;22;120447;-91
2022/01/12 22:14:11;;;;;;;36.28;7.15;;;;;;;13.41;66.51;103102.69;6074706;22;119264;-90
2022/01/12 22:16:37;;;;;;;33.05;7.80;;;;;;;13.14;65.47;103068.72;6051142;22;121328;-92
2022/01/12 22:19:05;;;;;;;34.58;7.25;;;;;;;13.08;65.16;103049.09;6099232;22;120130;-90
2022/01/12 22:21:34;;;;;;;33.15;7.43;;;;;;;13.08;64.50;103059.34;6075441;22;119254;-91
2022/01/12 22:24:01;;;;;;;35.72;8.20;;;;;;;12.96;64.71;103021.25;6073377;22;120757;-91
2022/01/12 22:26:30;;;;;;;39.58;7.47;;;;;;;13.41;64.98;103096.41;6098755;22;122622;-91
2022/01/12 22:28:56;;;;;;;35.95;7.38;;;;;;;13.20;64.45;103069.84;6074880;22;119326;-91
2022/01/12 22:31:22;;;;;;;26.38;6.70;;;;;;;12.92;65.53;103026.81;6078448;22;120644;-91